sensor_id;sensor_type;location;lat;lon;timestamp;pressure;altitude;pressure_sealevel;temperature;humidity
10060;BME280;5069;49.306;8.636;2023-08-07T00:00:44;100296.69;;;14.12;100.00
10060;BME280;5069;49.306;8.636;2023-08-07T00:03:45;100287.31;;;14.05;100.00
10060;BME280;5069;49.306;8.636;2023-08-07T00:06:48;100288.56;;;13.98;100.00
10060;BME280;5069;49.306;8.636;2023-08-07T00:09:50;100293.06;;;13.96;100.00
10060;BME280;5069;49.306;8.636;2023-08-07T00:12:51;100292.13;;;13.97;100.00
10060;BME280;5069;49.306;8.636;2023-08-07T00:15:53;100292.88;;;14.00;100.00
10060;BME280;5069;49.306;8.636;2023-08-07T00:18:55;100296.50;;;13.98;100.00
10060;BME280;5069;49.306;8.636;2023-08-07T00:21:57;100287.41;;;14.03;100.00
10060;BME280;5069;49.306;8.636;2023-08-07T00:24:59;100286.53;;;14.03;100.00
10060;BME280;5069;49.306;8.636;2023-08-07T00:28:00;100287.97;;;14.10;100.00
10060;BME280;5069;49.306;8.636;2023-08-07T00:31:02;100289.81;;;14.08;100.00
10060;BME280;5069;49.306;8.636;2023-08-07T00:34:03;100285.44;;;14.07;100.00
10060;BME280;5069;49.306;8.636;2023-08-07T00:37:05;100287.31;;;14.05;100.00
10060;BME280;5069;49.306;8.636;2023-08-07T00:40:08;100299.66;;;14.06;100.00
10060;BME280;5069;49.306;8.636;2023-08-07T00:43:11;100288.31;;;14.02;100.00
10060;BME280;5069;49.306;8.636;2023-08-07T00:46:12;100293.38;;;14.07;100.00
10060;BME280;5069;49.306;8.636;2023-08-07T00:49:14;100296.53;;;14.15;100.00
10060;BME280;5069;49.306;8.636;2023-08-07T00:52:15;100293.25;;;14.10;100.00
10060;BME280;5069;49.306;8.636;2023-08-07T00:55:20;100295.66;;;13.97;100.00
10060;BME280;5069;49.306;8.636;2023-08-07T00:58:22;100294.78;;;13.97;100.00
10060;BME280;5069;49.306;8.636;2023-08-07T01:01:25;100300.16;;;13.95;100.00
10060;BME280;5069;49.306;8.636;2023-08-07T01:04:26;100294.03;;;13.95;100.00
10060;BME280;5069;49.306;8.636;2023-08-07T01:07:28;100295.88;;;13.93;100.00
10060;BME280;5069;49.306;8.636;2023-08-07T01:10:35;100298.84;;;14.04;100.00
10060;BME280;5069;49.306;8.636;2023-08-07T01:13:45;100303.38;;;14.02;100.00
10060;BME280;5069;49.306;8.636;2023-08-07T01:16:52;100298.00;;;14.03;100.00
10060;BME280;5069;49.306;8.636;2023-08-07T01:19:58;100300.03;;;13.98;100.00
10060;BME280;5069;49.306;8.636;2023-08-07T01:22:59;100303.94;;;14.08;100.00
10060;BME280;5069;49.306;8.636;2023-08-07T01:26:01;100312.28;;;14.01;100.00
10060;BME280;5069;49.306;8.636;2023-08-07T01:29:12;100306.13;;;14.00;100.00
10060;BME280;5069;49.306;8.636;2023-08-07T01:32:21;100305.03;;;14.04;100.00
10060;BME280;5069;49.306;8.636;2023-08-07T01:35:27;100311.19;;;14.05;100.00
10060;BME280;5069;49.306;8.636;2023-08-07T01:38:31;100302.66;;;13.98;100.00
10060;BME280;5069;49.306;8.636;2023-08-07T01:41:35;100314.06;;;14.00;100.00
10060;BME280;5069;49.306;8.636;2023-08-07T01:44:37;100316.91;;;13.96;100.00
10060;BME280;5069;49.306;8.636;2023-08-07T01:47:39;100315.53;;;13.89;100.00
10060;BME280;5069;49.306;8.636;2023-08-07T01:50:40;100318.00;;;13.92;100.00
10060;BME280;5069;49.306;8.636;2023-08-07T01:53:42;100313.66;;;14.08;100.00
10060;BME280;5069;49.306;8.636;2023-08-07T01:56:44;100318.22;;;14.06;100.00
10060;BME280;5069;49.306;8.636;2023-08-07T01:59:45;100319.28;;;14.02;100.00
10060;BME280;5069;49.306;8.636;2023-08-07T02:02:47;100318.34;;;14.03;100.00
10060;BME280;5069;49.306;8.636;2023-08-07T02:05:49;100314.06;;;14.00;100.00
10060;BME280;5069;49.306;8.636;2023-08-07T02:08:51;100324.09;;;13.94;100.00
10060;BME280;5069;49.306;8.636;2023-08-07T02:11:52;100325.53;;;14.01;100.00
10060;BME280;5069;49.306;8.636;2023-08-07T02:14:54;100324.38;;;14.06;100.00
10060;BME280;5069;49.306;8.636;2023-08-07T02:17:55;100324.38;;;14.06;100.00
10060;BME280;5069;49.306;8.636;2023-08-07T02:20:58;100334.25;;;14.03;100.00
10060;BME280;5069;49.306;8.636;2023-08-07T02:24:00;100337.81;;;14.02;100.00
10060;BME280;5069;49.306;8.636;2023-08-07T02:27:01;100328.19;;;14.01;100.00
10060;BME280;5069;49.306;8.636;2023-08-07T02:30:03;100330.19;;;14.13;100.00
10060;BME280;5069;49.306;8.636;2023-08-07T02:33:05;100330.19;;;14.13;100.00
10060;BME280;5069;49.306;8.636;2023-08-07T02:36:07;100332.44;;;14.03;100.00
10060;BME280;5069;49.306;8.636;2023-08-07T02:39:08;100327.22;;;14.02;100.00
10060;BME280;5069;49.306;8.636;2023-08-07T02:42:10;100328.00;;;14.04;100.00
10060;BME280;5069;49.306;8.636;2023-08-07T02:45:11;100340.41;;;14.03;100.00
10060;BME280;5069;49.306;8.636;2023-08-07T02:48:13;100337.06;;;14.00;100.00
10060;BME280;5069;49.306;8.636;2023-08-07T02:51:14;100331.75;;;14.00;100.00
10060;BME280;5069;49.306;8.636;2023-08-07T02:54:16;100338.97;;;13.96;100.00
10060;BME280;5069;49.306;8.636;2023-08-07T02:57:17;100331.25;;;13.92;100.00
10060;BME280;5069;49.306;8.636;2023-08-07T03:00:19;100336.91;;;14.03;100.00
10060;BME280;5069;49.306;8.636;2023-08-07T03:03:23;100338.72;;;13.84;100.00
10060;BME280;5069;49.306;8.636;2023-08-07T03:06:25;100336.81;;;14.04;100.00
10060;BME280;5069;49.306;8.636;2023-08-07T03:09:26;100344.66;;;13.89;100.00
10060;BME280;5069;49.306;8.636;2023-08-07T03:12:28;100347.50;;;14.03;100.00
10060;BME280;5069;49.306;8.636;2023-08-07T03:15:29;100339.53;;;14.03;100.00
10060;BME280;5069;49.306;8.636;2023-08-07T03:18:31;100351.06;;;14.02;100.00
10060;BME280;5069;49.306;8.636;2023-08-07T03:21:33;100349.66;;;13.95;100.00
10060;BME280;5069;49.306;8.636;2023-08-07T03:24:35;100360.09;;;13.98;100.00
10060;BME280;5069;49.306;8.636;2023-08-07T03:27:36;100346.34;;;14.08;100.00
10060;BME280;5069;49.306;8.636;2023-08-07T03:30:39;100351.06;;;14.02;100.00
10060;BME280;5069;49.306;8.636;2023-08-07T03:33:41;100356.03;;;13.91;100.00
10060;BME280;5069;49.306;8.636;2023-08-07T03:36:44;100351.06;;;14.02;100.00
10060;BME280;5069;49.306;8.636;2023-08-07T03:39:46;100357.16;;;14.04;100.00
10060;BME280;5069;49.306;8.636;2023-08-07T03:42:49;100359.03;;;14.02;100.00
10060;BME280;5069;49.306;8.636;2023-08-07T03:45:55;100357.00;;;14.07;100.00
10060;BME280;5069;49.306;8.636;2023-08-07T03:49:01;100356.25;;;14.05;100.00
10060;BME280;5069;49.306;8.636;2023-08-07T03:52:04;100355.59;;;14.00;100.00
10060;BME280;5069;49.306;8.636;2023-08-07T03:55:06;100361.19;;;13.94;100.00
10060;BME280;5069;49.306;8.636;2023-08-07T03:58:08;100356.53;;;13.99;100.00
10060;BME280;5069;49.306;8.636;2023-08-07T04:01:09;100364.13;;;14.06;100.00
10060;BME280;5069;49.306;8.636;2023-08-07T04:04:13;100361.31;;;13.91;100.00
10060;BME280;5069;49.306;8.636;2023-08-07T04:07:15;100354.31;;;13.90;100.00
10060;BME280;5069;49.306;8.636;2023-08-07T04:10:16;100358.69;;;13.91;100.00
10060;BME280;5069;49.306;8.636;2023-08-07T04:13:18;100357.97;;;13.87;100.00
10060;BME280;5069;49.306;8.636;2023-08-07T04:16:21;100363.06;;;13.92;100.00
10060;BME280;5069;49.306;8.636;2023-08-07T04:19:23;100370.22;;;13.90;100.00
10060;BME280;5069;49.306;8.636;2023-08-07T04:22:24;100377.09;;;13.94;100.00
10060;BME280;5069;49.306;8.636;2023-08-07T04:25:26;100377.22;;;13.91;100.00
10060;BME280;5069;49.306;8.636;2023-08-07T04:28:28;100373.31;;;13.81;100.00
10060;BME280;5069;49.306;8.636;2023-08-07T04:31:30;100376.38;;;13.90;100.00
10060;BME280;5069;49.306;8.636;2023-08-07T04:34:32;100374.22;;;13.80;100.00
10060;BME280;5069;49.306;8.636;2023-08-07T04:37:34;100384.97;;;13.77;100.00
10060;BME280;5069;49.306;8.636;2023-08-07T04:40:35;100381.13;;;13.84;100.00
10060;BME280;5069;49.306;8.636;2023-08-07T04:43:37;100391.34;;;13.73;100.00
10060;BME280;5069;49.306;8.636;2023-08-07T04:46:38;100402.88;;;13.72;100.00
10060;BME280;5069;49.306;8.636;2023-08-07T04:49:40;100401.94;;;13.73;100.00
10060;BME280;5069;49.306;8.636;2023-08-07T04:52:41;100401.88;;;13.93;100.00
10060;BME280;5069;49.306;8.636;2023-08-07T04:55:43;100402.59;;;13.78;100.00
10060;BME280;5069;49.306;8.636;2023-08-07T04:58:44;100407.75;;;13.81;100.00
10060;BME280;5069;49.306;8.636;2023-08-07T05:01:46;100409.13;;;13.89;100.00
10060;BME280;5069;49.306;8.636;2023-08-07T05:04:47;100409.53;;;13.80;100.00
10060;BME280;5069;49.306;8.636;2023-08-07T05:07:49;100409.47;;;13.82;100.00
10060;BME280;5069;49.306;8.636;2023-08-07T05:10:50;100417.25;;;13.85;100.00
10060;BME280;5069;49.306;8.636;2023-08-07T05:13:51;100408.16;;;13.90;100.00
10060;BME280;5069;49.306;8.636;2023-08-07T05:16:53;100413.84;;;13.83;100.00
10060;BME280;5069;49.306;8.636;2023-08-07T05:19:54;100422.06;;;13.77;100.00
10060;BME280;5069;49.306;8.636;2023-08-07T05:22:56;100425.50;;;13.79;100.00
10060;BME280;5069;49.306;8.636;2023-08-07T05:25:57;100422.00;;;13.78;100.00
10060;BME280;5069;49.306;8.636;2023-08-07T05:28:59;100420.72;;;13.87;100.00
10060;BME280;5069;49.306;8.636;2023-08-07T05:32:01;100425.94;;;13.88;100.00
10060;BME280;5069;49.306;8.636;2023-08-07T05:35:05;100423.66;;;13.81;100.00
10060;BME280;5069;49.306;8.636;2023-08-07T05:38:06;100430.78;;;13.79;100.00
10060;BME280;5069;49.306;8.636;2023-08-07T05:41:11;100428.81;;;13.84;100.00
10060;BME280;5069;49.306;8.636;2023-08-07T05:44:12;100435.97;;;13.82;100.00
10060;BME280;5069;49.306;8.636;2023-08-07T05:47:14;100440.41;;;13.81;100.00
10060;BME280;5069;49.306;8.636;2023-08-07T05:50:15;100431.75;;;13.78;100.00
10060;BME280;5069;49.306;8.636;2023-08-07T05:53:17;100432.53;;;13.80;100.00
10060;BME280;5069;49.306;8.636;2023-08-07T05:56:18;100444.72;;;13.84;100.00
10060;BME280;5069;49.306;8.636;2023-08-07T05:59:20;100439.91;;;13.92;100.00
10060;BME280;5069;49.306;8.636;2023-08-07T06:02:22;100435.53;;;13.91;100.00
10060;BME280;5069;49.306;8.636;2023-08-07T06:05:23;100441.28;;;14.00;100.00
10060;BME280;5069;49.306;8.636;2023-08-07T06:08:25;100445.28;;;14.09;100.00
10060;BME280;5069;49.306;8.636;2023-08-07T06:11:27;100451.16;;;14.16;100.00
10060;BME280;5069;49.306;8.636;2023-08-07T06:14:28;100452.31;;;14.10;100.00
10060;BME280;5069;49.306;8.636;2023-08-07T06:17:31;100456.44;;;14.16;100.00
10060;BME280;5069;49.306;8.636;2023-08-07T06:20:34;100446.28;;;14.06;100.00
10060;BME280;5069;49.306;8.636;2023-08-07T06:23:36;100448.72;;;14.11;100.00
10060;BME280;5069;49.306;8.636;2023-08-07T06:26:38;100449.72;;;14.08;100.00
10060;BME280;5069;49.306;8.636;2023-08-07T06:29:40;100449.84;;;14.24;100.00
10060;BME280;5069;49.306;8.636;2023-08-07T06:32:41;100464.75;;;14.27;100.00
10060;BME280;5069;49.306;8.636;2023-08-07T06:35:43;100459.88;;;14.36;100.00
10060;BME280;5069;49.306;8.636;2023-08-07T06:38:45;100468.28;;;14.46;100.00
10060;BME280;5069;49.306;8.636;2023-08-07T06:41:46;100475.13;;;14.31;100.00
10060;BME280;5069;49.306;8.636;2023-08-07T06:44:51;100471.41;;;14.35;100.00
10060;BME280;5069;49.306;8.636;2023-08-07T06:47:53;100476.53;;;14.40;100.00
10060;BME280;5069;49.306;8.636;2023-08-07T06:50:54;100471.13;;;14.41;100.00
10060;BME280;5069;49.306;8.636;2023-08-07T06:53:56;100481.63;;;14.44;100.00
10060;BME280;5069;49.306;8.636;2023-08-07T06:56:57;100487.00;;;14.43;100.00
10060;BME280;5069;49.306;8.636;2023-08-07T06:59:59;100478.41;;;14.38;100.00
10060;BME280;5069;49.306;8.636;2023-08-07T07:03:01;100485.25;;;14.42;100.00
10060;BME280;5069;49.306;8.636;2023-08-07T07:06:03;100482.09;;;14.53;100.00
10060;BME280;5069;49.306;8.636;2023-08-07T07:09:04;100484.53;;;14.57;100.00
10060;BME280;5069;49.306;8.636;2023-08-07T07:12:06;100484.53;;;14.57;100.00
10060;BME280;5069;49.306;8.636;2023-08-07T07:15:08;100486.41;;;14.55;100.00
10060;BME280;5069;49.306;8.636;2023-08-07T07:18:10;100496.56;;;14.64;100.00
10060;BME280;5069;49.306;8.636;2023-08-07T07:21:12;100507.06;;;14.48;100.00
10060;BME280;5069;49.306;8.636;2023-08-07T07:24:13;100511.94;;;14.58;100.00
10060;BME280;5069;49.306;8.636;2023-08-07T07:27:15;100510.69;;;14.65;100.00
10060;BME280;5069;49.306;8.636;2023-08-07T07:30:16;100517.44;;;14.53;100.00
10060;BME280;5069;49.306;8.636;2023-08-07T07:33:18;100524.88;;;14.64;100.00
10060;BME280;5069;49.306;8.636;2023-08-07T07:36:19;100526.13;;;14.57;100.00
10060;BME280;5069;49.306;8.636;2023-08-07T07:39:21;100529.72;;;14.56;100.00
10060;BME280;5069;49.306;8.636;2023-08-07T07:42:23;100527.53;;;14.64;100.00
10060;BME280;5069;49.306;8.636;2023-08-07T07:45:24;100541.59;;;14.66;100.00
10060;BME280;5069;49.306;8.636;2023-08-07T07:48:26;100531.16;;;14.63;100.00
10060;BME280;5069;49.306;8.636;2023-08-07T07:51:27;100535.72;;;14.59;100.00
10060;BME280;5069;49.306;8.636;2023-08-07T07:54:30;100536.66;;;14.58;100.00
10060;BME280;5069;49.306;8.636;2023-08-07T07:57:31;100549.78;;;14.61;100.00
10060;BME280;5069;49.306;8.636;2023-08-07T08:00:34;100546.63;;;14.53;100.00
10060;BME280;5069;49.306;8.636;2023-08-07T08:03:35;100546.63;;;14.53;100.00
10060;BME280;5069;49.306;8.636;2023-08-07T08:06:37;100545.91;;;14.50;100.00
10060;BME280;5069;49.306;8.636;2023-08-07T08:09:39;100554.38;;;14.58;100.00
10060;BME280;5069;49.306;8.636;2023-08-07T08:12:40;100556.66;;;14.65;100.00
10060;BME280;5069;49.306;8.636;2023-08-07T08:15:43;100561.03;;;14.66;100.00
10060;BME280;5069;49.306;8.636;2023-08-07T08:18:45;100564.09;;;14.76;100.00
10060;BME280;5069;49.306;8.636;2023-08-07T08:21:47;100567.38;;;14.81;100.00
10060;BME280;5069;49.306;8.636;2023-08-07T08:24:48;100580.84;;;14.95;100.00
10060;BME280;5069;49.306;8.636;2023-08-07T08:27:50;100566.19;;;15.05;100.00
10060;BME280;5069;49.306;8.636;2023-08-07T08:30:52;100572.63;;;15.18;100.00
10060;BME280;5069;49.306;8.636;2023-08-07T08:33:55;100575.28;;;15.18;98.37
10060;BME280;5069;49.306;8.636;2023-08-07T08:36:56;100583.72;;;15.26;95.11
10060;BME280;5069;49.306;8.636;2023-08-07T08:39:58;100574.81;;;15.27;92.70
10060;BME280;5069;49.306;8.636;2023-08-07T08:43:00;100571.22;;;15.28;96.03
10060;BME280;5069;49.306;8.636;2023-08-07T08:46:04;100577.59;;;15.43;95.07
10060;BME280;5069;49.306;8.636;2023-08-07T08:49:06;100581.22;;;15.59;93.58
10060;BME280;5069;49.306;8.636;2023-08-07T08:52:10;100577.44;;;15.63;89.58
10060;BME280;5069;49.306;8.636;2023-08-07T08:55:12;100583.63;;;15.81;90.31
10060;BME280;5069;49.306;8.636;2023-08-07T08:58:15;100582.69;;;15.82;86.27
10060;BME280;5069;49.306;8.636;2023-08-07T09:01:17;100584.72;;;15.77;85.35
10060;BME280;5069;49.306;8.636;2023-08-07T09:04:19;100584.16;;;15.88;85.15
10060;BME280;5069;49.306;8.636;2023-08-07T09:07:21;100587.34;;;15.94;80.56
10060;BME280;5069;49.306;8.636;2023-08-07T09:10:24;100583.50;;;16.00;81.93
10060;BME280;5069;49.306;8.636;2023-08-07T09:13:28;100584.53;;;15.97;79.02
10060;BME280;5069;49.306;8.636;2023-08-07T09:16:30;100575.75;;;15.95;80.40
10060;BME280;5069;49.306;8.636;2023-08-07T09:19:32;100585.09;;;16.20;80.83
10060;BME280;5069;49.306;8.636;2023-08-07T09:22:34;100584.91;;;16.40;77.11
10060;BME280;5069;49.306;8.636;2023-08-07T09:25:35;100588.91;;;16.47;75.65
10060;BME280;5069;49.306;8.636;2023-08-07T09:28:37;100584.97;;;16.38;75.90
10060;BME280;5069;49.306;8.636;2023-08-07T09:31:43;100590.50;;;16.51;80.81
10060;BME280;5069;49.306;8.636;2023-08-07T09:34:48;100588.75;;;16.34;83.54
10060;BME280;5069;49.306;8.636;2023-08-07T09:37:50;100596.75;;;16.50;83.55
10060;BME280;5069;49.306;8.636;2023-08-07T09:40:51;100601.28;;;16.48;86.73
10060;BME280;5069;49.306;8.636;2023-08-07T09:43:53;100599.56;;;16.47;85.95
10060;BME280;5069;49.306;8.636;2023-08-07T09:46:54;100602.56;;;16.41;87.60
10060;BME280;5069;49.306;8.636;2023-08-07T09:49:56;100597.06;;;16.44;86.87
10060;BME280;5069;49.306;8.636;2023-08-07T09:52:58;100602.81;;;16.52;88.28
10060;BME280;5069;49.306;8.636;2023-08-07T09:56:00;100608.16;;;16.52;87.64
10060;BME280;5069;49.306;8.636;2023-08-07T09:59:01;100606.47;;;16.51;86.95
10060;BME280;5069;49.306;8.636;2023-08-07T10:02:03;100611.50;;;16.40;89.77
10060;BME280;5069;49.306;8.636;2023-08-07T10:05:06;100616.38;;;16.32;93.35
10060;BME280;5069;49.306;8.636;2023-08-07T10:08:08;100625.69;;;16.56;89.97
10060;BME280;5069;49.306;8.636;2023-08-07T10:11:10;100623.34;;;16.34;89.22
10060;BME280;5069;49.306;8.636;2023-08-07T10:14:13;100620.69;;;16.50;91.74
10060;BME280;5069;49.306;8.636;2023-08-07T10:17:16;100623.44;;;16.48;99.35
10060;BME280;5069;49.306;8.636;2023-08-07T10:20:17;100627.25;;;16.60;95.33
10060;BME280;5069;49.306;8.636;2023-08-07T10:23:20;100627.25;;;16.60;98.87
10060;BME280;5069;49.306;8.636;2023-08-07T10:26:23;100628.72;;;16.33;100.00
10060;BME280;5069;49.306;8.636;2023-08-07T10:29:25;100633.53;;;16.42;100.00
10060;BME280;5069;49.306;8.636;2023-08-07T10:32:28;100630.81;;;16.43;100.00
10060;BME280;5069;49.306;8.636;2023-08-07T10:35:32;100636.09;;;16.61;100.00
10060;BME280;5069;49.306;8.636;2023-08-07T10:38:35;100633.72;;;16.87;100.00
10060;BME280;5069;49.306;8.636;2023-08-07T10:41:45;100639.03;;;16.87;100.00
10060;BME280;5069;49.306;8.636;2023-08-07T10:44:51;100642.06;;;16.97;100.00
10060;BME280;5069;49.306;8.636;2023-08-07T10:48:06;100638.28;;;16.85;100.00
10060;BME280;5069;49.306;8.636;2023-08-07T10:51:12;100644.03;;;16.78;100.00
10060;BME280;5069;49.306;8.636;2023-08-07T10:54:14;100645.66;;;16.80;99.36
10060;BME280;5069;49.306;8.636;2023-08-07T10:57:17;100647.84;;;16.57;96.57
10060;BME280;5069;49.306;8.636;2023-08-07T11:00:25;100651.38;;;16.57;98.23
10060;BME280;5069;49.306;8.636;2023-08-07T11:03:28;100653.09;;;16.41;99.33
10060;BME280;5069;49.306;8.636;2023-08-07T11:06:31;100654.09;;;16.56;96.53
10060;BME280;5069;49.306;8.636;2023-08-07T11:09:33;100665.16;;;16.48;100.00
10060;BME280;5069;49.306;8.636;2023-08-07T11:12:35;100663.28;;;16.50;100.00
10060;BME280;5069;49.306;8.636;2023-08-07T11:15:38;100658.28;;;16.44;100.00
10060;BME280;5069;49.306;8.636;2023-08-07T11:18:40;100660.34;;;16.54;100.00
10060;BME280;5069;49.306;8.636;2023-08-07T11:21:43;100665.66;;;16.39;100.00
10060;BME280;5069;49.306;8.636;2023-08-07T11:24:46;100661.88;;;16.43;100.00
10060;BME280;5069;49.306;8.636;2023-08-07T11:27:48;100661.66;;;16.30;100.00
10060;BME280;5069;49.306;8.636;2023-08-07T11:30:51;100667.19;;;16.43;100.00
10060;BME280;5069;49.306;8.636;2023-08-07T11:33:57;100659.22;;;16.43;100.00
10060;BME280;5069;49.306;8.636;2023-08-07T11:36:59;100655.00;;;16.39;100.00
10060;BME280;5069;49.306;8.636;2023-08-07T11:40:02;100654.75;;;16.61;100.00
10060;BME280;5069;49.306;8.636;2023-08-07T11:43:07;100652.69;;;16.66;100.00
10060;BME280;5069;49.306;8.636;2023-08-07T11:46:13;100649.94;;;16.67;100.00
10060;BME280;5069;49.306;8.636;2023-08-07T11:49:15;100659.03;;;16.63;100.00
10060;BME280;5069;49.306;8.636;2023-08-07T11:52:16;100652.88;;;16.63;100.00
10060;BME280;5069;49.306;8.636;2023-08-07T11:55:18;100650.03;;;16.66;100.00
10060;BME280;5069;49.306;8.636;2023-08-07T11:58:20;100641.97;;;16.83;100.00
10060;BME280;5069;49.306;8.636;2023-08-07T12:01:22;100638.78;;;16.92;100.00
10060;BME280;5069;49.306;8.636;2023-08-07T12:04:24;100634.16;;;17.11;100.00
10060;BME280;5069;49.306;8.636;2023-08-07T12:07:27;100624.50;;;17.40;100.00
10060;BME280;5069;49.306;8.636;2023-08-07T12:10:34;100625.66;;;17.50;100.00
10060;BME280;5069;49.306;8.636;2023-08-07T12:13:38;100625.16;;;17.44;98.81
10060;BME280;5069;49.306;8.636;2023-08-07T12:16:44;100627.88;;;17.73;97.13
10060;BME280;5069;49.306;8.636;2023-08-07T12:19:49;100635.22;;;17.84;97.83
10060;BME280;5069;49.306;8.636;2023-08-07T12:22:51;100630.16;;;17.80;88.97
10060;BME280;5069;49.306;8.636;2023-08-07T12:25:53;100629.91;;;17.84;91.82
10060;BME280;5069;49.306;8.636;2023-08-07T12:28:54;100620.31;;;17.66;91.60
10060;BME280;5069;49.306;8.636;2023-08-07T12:31:55;100627.22;;;17.70;92.77
10060;BME280;5069;49.306;8.636;2023-08-07T12:35:00;100621.50;;;17.76;90.18
10060;BME280;5069;49.306;8.636;2023-08-07T12:38:05;100620.28;;;17.82;88.88
10060;BME280;5069;49.306;8.636;2023-08-07T12:41:07;100615.75;;;17.98;92.73
10060;BME280;5069;49.306;8.636;2023-08-07T12:44:29;100619.47;;;18.09;87.30
10060;BME280;5069;49.306;8.636;2023-08-07T12:47:30;100618.03;;;18.18;82.23
10060;BME280;5069;49.306;8.636;2023-08-07T12:50:32;100616.13;;;18.34;79.69
10060;BME280;5069;49.306;8.636;2023-08-07T12:53:33;100602.63;;;18.37;82.32
10060;BME280;5069;49.306;8.636;2023-08-07T12:56:35;100611.22;;;18.56;79.33
10060;BME280;5069;49.306;8.636;2023-08-07T12:59:37;100601.63;;;18.52;76.68
10060;BME280;5069;49.306;8.636;2023-08-07T13:02:40;100602.59;;;18.51;80.91
10060;BME280;5069;49.306;8.636;2023-08-07T13:05:42;100605.97;;;18.55;74.94
10060;BME280;5069;49.306;8.636;2023-08-07T13:08:43;100613.56;;;18.47;77.04
10060;BME280;5069;49.306;8.636;2023-08-07T13:11:47;100601.28;;;18.58;77.40
10060;BME280;5069;49.306;8.636;2023-08-07T13:14:48;100596.50;;;18.64;73.16
10060;BME280;5069;49.306;8.636;2023-08-07T13:17:50;100601.47;;;18.70;72.79
10060;BME280;5069;49.306;8.636;2023-08-07T13:20:51;100601.38;;;18.71;75.87
10060;BME280;5069;49.306;8.636;2023-08-07T13:23:53;100599.09;;;18.79;74.87
10060;BME280;5069;49.306;8.636;2023-08-07T13:26:57;100598.41;;;18.76;71.31
10060;BME280;5069;49.306;8.636;2023-08-07T13:30:00;100604.69;;;18.89;70.26
10060;BME280;5069;49.306;8.636;2023-08-07T13:33:01;100601.44;;;18.84;68.94
10060;BME280;5069;49.306;8.636;2023-08-07T13:36:03;100599.13;;;18.92;68.87
10060;BME280;5069;49.306;8.636;2023-08-07T13:39:05;100601.53;;;18.82;67.40
10060;BME280;5069;49.306;8.636;2023-08-07T13:42:07;100594.78;;;18.77;67.96
10060;BME280;5069;49.306;8.636;2023-08-07T13:45:09;100601.06;;;18.90;67.51
10060;BME280;5069;49.306;8.636;2023-08-07T13:48:11;100594.25;;;18.98;69.65
10060;BME280;5069;49.306;8.636;2023-08-07T13:51:16;100596.44;;;19.06;65.36
10060;BME280;5069;49.306;8.636;2023-08-07T13:54:17;100593.91;;;19.17;63.28
10060;BME280;5069;49.306;8.636;2023-08-07T13:57:19;100600.84;;;19.20;63.89
10060;BME280;5069;49.306;8.636;2023-08-07T14:00:20;100604.78;;;19.14;62.33
10060;BME280;5069;49.306;8.636;2023-08-07T14:03:22;100602.06;;;19.28;65.73
10060;BME280;5069;49.306;8.636;2023-08-07T14:06:23;100595.97;;;19.53;60.65
10060;BME280;5069;49.306;8.636;2023-08-07T14:09:25;100600.28;;;19.94;59.75
10060;BME280;5069;49.306;8.636;2023-08-07T14:12:27;100590.88;;;20.64;56.26
10060;BME280;5069;49.306;8.636;2023-08-07T14:15:28;100590.06;;;21.11;51.87
10060;BME280;5069;49.306;8.636;2023-08-07T14:18:30;100591.88;;;21.47;50.46
10060;BME280;5069;49.306;8.636;2023-08-07T14:21:32;100595.06;;;21.28;49.11
10060;BME280;5069;49.306;8.636;2023-08-07T14:24:33;100596.63;;;20.83;48.68
10060;BME280;5069;49.306;8.636;2023-08-07T14:27:34;100603.75;;;20.59;49.07
10060;BME280;5069;49.306;8.636;2023-08-07T14:30:36;100596.50;;;21.09;50.06
10060;BME280;5069;49.306;8.636;2023-08-07T14:33:38;100592.22;;;21.54;46.90
10060;BME280;5069;49.306;8.636;2023-08-07T14:36:39;100597.38;;;21.92;48.19
10060;BME280;5069;49.306;8.636;2023-08-07T14:39:42;100605.50;;;22.14;45.87
10060;BME280;5069;49.306;8.636;2023-08-07T14:42:43;100597.38;;;21.92;47.79
10060;BME280;5069;49.306;8.636;2023-08-07T14:45:45;100596.97;;;22.20;46.39
10060;BME280;5069;49.306;8.636;2023-08-07T14:48:46;100588.63;;;22.56;44.43
10060;BME280;5069;49.306;8.636;2023-08-07T14:51:48;100589.66;;;22.55;43.59
10060;BME280;5069;49.306;8.636;2023-08-07T14:54:49;100587.56;;;22.14;46.04
10060;BME280;5069;49.306;8.636;2023-08-07T14:57:51;100583.19;;;21.78;44.31
10060;BME280;5069;49.306;8.636;2023-08-07T15:00:55;100586.94;;;21.76;42.73
10060;BME280;5069;49.306;8.636;2023-08-07T15:03:57;100590.25;;;22.25;43.67
10060;BME280;5069;49.306;8.636;2023-08-07T15:06:58;100575.34;;;22.66;42.53
10060;BME280;5069;49.306;8.636;2023-08-07T15:10:00;100574.72;;;22.85;42.78
10060;BME280;5069;49.306;8.636;2023-08-07T15:13:01;100581.63;;;23.10;42.19
10060;BME280;5069;49.306;8.636;2023-08-07T15:16:03;100576.31;;;23.19;40.71
10060;BME280;5069;49.306;8.636;2023-08-07T15:19:04;100582.94;;;23.15;44.02
10060;BME280;5069;49.306;8.636;2023-08-07T15:22:06;100582.66;;;22.64;43.67
10060;BME280;5069;49.306;8.636;2023-08-07T15:25:08;100585.34;;;22.19;45.39
10060;BME280;5069;49.306;8.636;2023-08-07T15:28:09;100586.34;;;21.72;45.76
10060;BME280;5069;49.306;8.636;2023-08-07T15:31:11;100586.72;;;21.44;47.49
10060;BME280;5069;49.306;8.636;2023-08-07T15:34:13;100588.50;;;21.32;48.91
10060;BME280;5069;49.306;8.636;2023-08-07T15:37:14;100592.59;;;21.25;49.75
10060;BME280;5069;49.306;8.636;2023-08-07T15:40:16;100598.59;;;21.99;48.10
10060;BME280;5069;49.306;8.636;2023-08-07T15:43:17;100597.19;;;22.39;47.04
10060;BME280;5069;49.306;8.636;2023-08-07T15:46:19;100595.84;;;22.67;46.62
10060;BME280;5069;49.306;8.636;2023-08-07T15:49:20;100591.81;;;22.61;45.46
10060;BME280;5069;49.306;8.636;2023-08-07T15:52:22;100591.31;;;22.23;46.65
10060;BME280;5069;49.306;8.636;2023-08-07T15:55:24;100592.00;;;21.92;48.13